sensor_id;sensor_type;location;lat;lon;timestamp;P1;durP1;ratioP1;P2;durP2;ratioP2
74233;SDS011;62591;55.764;37.718;2023-10-09T00:00:33;0.82;;;0.40;;
74233;SDS011;62591;55.764;37.718;2023-10-09T00:03:28;2.38;;;0.40;;
74233;SDS011;62591;55.764;37.718;2023-10-09T00:05:58;1.10;;;0.40;;
74233;SDS011;62591;55.764;37.718;2023-10-09T00:08:29;0.95;;;0.30;;
74233;SDS011;62591;55.764;37.718;2023-10-09T00:11:00;0.90;;;0.40;;
74233;SDS011;62591;55.764;37.718;2023-10-09T00:13:43;2.17;;;0.65;;
74233;SDS011;62591;55.764;37.718;2023-10-09T00:16:19;1.83;;;0.60;;
74233;SDS011;62591;55.764;37.718;2023-10-09T00:19:00;1.33;;;0.45;;
74233;SDS011;62591;55.764;37.718;2023-10-09T00:21:40;1.60;;;0.55;;
74233;SDS011;62591;55.764;37.718;2023-10-09T00:24:09;1.92;;;0.40;;
74233;SDS011;62591;55.764;37.718;2023-10-09T00:26:44;0.98;;;0.40;;
74233;SDS011;62591;55.764;37.718;2023-10-09T00:29:15;1.10;;;0.50;;
74233;SDS011;62591;55.764;37.718;2023-10-09T00:31:49;1.25;;;0.40;;
74233;SDS011;62591;55.764;37.718;2023-10-09T00:34:22;1.75;;;0.70;;
74233;SDS011;62591;55.764;37.718;2023-10-09T00:36:53;1.23;;;0.50;;
74233;SDS011;62591;55.764;37.718;2023-10-09T00:39:23;1.33;;;0.60;;
74233;SDS011;62591;55.764;37.718;2023-10-09T00:44:41;1.13;;;0.30;;
74233;SDS011;62591;55.764;37.718;2023-10-09T00:47:11;1.63;;;0.50;;
74233;SDS011;62591;55.764;37.718;2023-10-09T00:49:54;1.42;;;0.50;;
74233;SDS011;62591;55.764;37.718;2023-10-09T00:52:31;1.60;;;0.52;;
74233;SDS011;62591;55.764;37.718;2023-10-09T00:55:04;1.73;;;0.60;;
74233;SDS011;62591;55.764;37.718;2023-10-09T00:57:44;0.98;;;0.40;;
74233;SDS011;62591;55.764;37.718;2023-10-09T01:00:23;1.55;;;0.40;;
74233;SDS011;62591;55.764;37.718;2023-10-09T01:03:16;0.98;;;0.30;;
74233;SDS011;62591;55.764;37.718;2023-10-09T01:05:50;1.35;;;0.30;;
74233;SDS011;62591;55.764;37.718;2023-10-09T01:08:25;1.65;;;0.50;;
74233;SDS011;62591;55.764;37.718;2023-10-09T01:11:10;1.67;;;0.50;;
74233;SDS011;62591;55.764;37.718;2023-10-09T01:13:47;1.25;;;0.55;;
74233;SDS011;62591;55.764;37.718;2023-10-09T01:16:39;1.77;;;0.40;;
74233;SDS011;62591;55.764;37.718;2023-10-09T01:19:09;0.95;;;0.32;;
74233;SDS011;62591;55.764;37.718;2023-10-09T01:21:51;1.00;;;0.50;;
74233;SDS011;62591;55.764;37.718;2023-10-09T01:24:21;1.10;;;0.50;;
74233;SDS011;62591;55.764;37.718;2023-10-09T01:26:53;1.23;;;0.40;;
74233;SDS011;62591;55.764;37.718;2023-10-09T01:29:24;1.25;;;0.40;;
74233;SDS011;62591;55.764;37.718;2023-10-09T01:31:55;1.60;;;0.50;;
74233;SDS011;62591;55.764;37.718;2023-10-09T01:34:28;0.98;;;0.40;;
74233;SDS011;62591;55.764;37.718;2023-10-09T01:37:10;1.38;;;0.50;;
74233;SDS011;62591;55.764;37.718;2023-10-09T01:39:48;1.23;;;0.55;;
74233;SDS011;62591;55.764;37.718;2023-10-09T01:42:19;1.27;;;0.30;;
74233;SDS011;62591;55.764;37.718;2023-10-09T01:44:55;1.17;;;0.43;;
74233;SDS011;62591;55.764;37.718;2023-10-09T01:47:25;0.90;;;0.30;;
74233;SDS011;62591;55.764;37.718;2023-10-09T01:49:59;0.70;;;0.20;;
74233;SDS011;62591;55.764;37.718;2023-10-09T01:52:32;0.80;;;0.32;;
74233;SDS011;62591;55.764;37.718;2023-10-09T01:55:05;1.00;;;0.30;;
74233;SDS011;62591;55.764;37.718;2023-10-09T01:57:36;1.75;;;0.57;;
74233;SDS011;62591;55.764;37.718;2023-10-09T02:00:06;1.33;;;0.45;;
74233;SDS011;62591;55.764;37.718;2023-10-09T02:02:39;0.70;;;0.30;;
74233;SDS011;62591;55.764;37.718;2023-10-09T02:05:12;0.75;;;0.30;;
74233;SDS011;62591;55.764;37.718;2023-10-09T02:07:51;1.45;;;0.70;;
74233;SDS011;62591;55.764;37.718;2023-10-09T02:10:22;2.58;;;0.50;;
74233;SDS011;62591;55.764;37.718;2023-10-09T02:13:03;1.05;;;0.20;;
74233;SDS011;62591;55.764;37.718;2023-10-09T02:15:46;0.70;;;0.30;;
74233;SDS011;62591;55.764;37.718;2023-10-09T02:18:26;0.88;;;0.30;;
74233;SDS011;62591;55.764;37.718;2023-10-09T02:21:07;1.27;;;0.38;;
74233;SDS011;62591;55.764;37.718;2023-10-09T02:23:47;0.63;;;0.20;;
74233;SDS011;62591;55.764;37.718;2023-10-09T02:26:19;0.80;;;0.28;;
74233;SDS011;62591;55.764;37.718;2023-10-09T02:28:53;1.08;;;0.38;;
74233;SDS011;62591;55.764;37.718;2023-10-09T02:31:27;0.65;;;0.20;;
74233;SDS011;62591;55.764;37.718;2023-10-09T02:34:03;1.75;;;0.30;;
74233;SDS011;62591;55.764;37.718;2023-10-09T02:36:33;1.02;;;0.35;;
74233;SDS011;62591;55.764;37.718;2023-10-09T02:39:05;0.95;;;0.30;;
74233;SDS011;62591;55.764;37.718;2023-10-09T02:41:50;0.45;;;0.13;;
74233;SDS011;62591;55.764;37.718;2023-10-09T02:44:21;0.30;;;0.10;;
74233;SDS011;62591;55.764;37.718;2023-10-09T02:46:58;0.40;;;0.20;;
74233;SDS011;62591;55.764;37.718;2023-10-09T02:49:32;1.00;;;0.45;;
74233;SDS011;62591;55.764;37.718;2023-10-09T02:52:05;0.52;;;0.20;;
74233;SDS011;62591;55.764;37.718;2023-10-09T02:54:34;0.43;;;0.20;;
74233;SDS011;62591;55.764;37.718;2023-10-09T02:57:09;0.68;;;0.30;;
74233;SDS011;62591;55.764;37.718;2023-10-09T02:59:49;0.70;;;0.17;;
74233;SDS011;62591;55.764;37.718;2023-10-09T03:02:19;0.75;;;0.20;;
74233;SDS011;62591;55.764;37.718;2023-10-09T03:04:51;3.10;;;0.20;;
74233;SDS011;62591;55.764;37.718;2023-10-09T03:07:22;0.52;;;0.20;;
74233;SDS011;62591;55.764;37.718;2023-10-09T03:09:51;1.23;;;0.20;;
74233;SDS011;62591;55.764;37.718;2023-10-09T03:12:21;1.33;;;0.22;;
74233;SDS011;62591;55.764;37.718;2023-10-09T03:14:53;0.20;;;0.10;;
74233;SDS011;62591;55.764;37.718;2023-10-09T03:17:30;1.90;;;0.40;;
74233;SDS011;62591;55.764;37.718;2023-10-09T03:20:02;1.05;;;0.28;;
74233;SDS011;62591;55.764;37.718;2023-10-09T03:22:39;1.10;;;0.30;;
74233;SDS011;62591;55.764;37.718;2023-10-09T03:25:09;0.47;;;0.20;;
74233;SDS011;62591;55.764;37.718;2023-10-09T03:27:42;0.85;;;0.38;;
74233;SDS011;62591;55.764;37.718;2023-10-09T03:30:14;1.33;;;0.40;;
74233;SDS011;62591;55.764;37.718;2023-10-09T03:32:50;2.95;;;0.50;;
74233;SDS011;62591;55.764;37.718;2023-10-09T03:35:21;1.10;;;0.40;;
74233;SDS011;62591;55.764;37.718;2023-10-09T03:37:56;0.75;;;0.30;;
74233;SDS011;62591;55.764;37.718;2023-10-09T03:40:28;1.10;;;0.40;;
74233;SDS011;62591;55.764;37.718;2023-10-09T03:43:00;1.10;;;0.40;;
74233;SDS011;62591;55.764;37.718;2023-10-09T03:45:31;1.40;;;0.40;;
74233;SDS011;62591;55.764;37.718;2023-10-09T03:48:02;1.25;;;0.43;;
74233;SDS011;62591;55.764;37.718;2023-10-09T03:50:38;1.25;;;0.50;;
74233;SDS011;62591;55.764;37.718;2023-10-09T03:53:10;1.27;;;0.80;;
74233;SDS011;62591;55.764;37.718;2023-10-09T03:55:40;0.80;;;0.30;;
74233;SDS011;62591;55.764;37.718;2023-10-09T03:58:10;3.90;;;0.28;;
74233;SDS011;62591;55.764;37.718;2023-10-09T04:00:40;1.35;;;0.40;;
74233;SDS011;62591;55.764;37.718;2023-10-09T04:03:14;1.65;;;0.50;;
74233;SDS011;62591;55.764;37.718;2023-10-09T04:05:44;0.80;;;0.30;;
74233;SDS011;62591;55.764;37.718;2023-10-09T04:08:13;2.03;;;0.50;;
74233;SDS011;62591;55.764;37.718;2023-10-09T04:10:47;1.58;;;0.50;;
74233;SDS011;62591;55.764;37.718;2023-10-09T04:13:30;1.20;;;0.43;;
74233;SDS011;62591;55.764;37.718;2023-10-09T04:16:02;1.02;;;0.35;;
74233;SDS011;62591;55.764;37.718;2023-10-09T04:18:40;1.10;;;0.47;;
74233;SDS011;62591;55.764;37.718;2023-10-09T04:21:12;1.33;;;0.50;;
74233;SDS011;62591;55.764;37.718;2023-10-09T04:23:47;2.55;;;0.65;;
74233;SDS011;62591;55.764;37.718;2023-10-09T04:26:33;1.98;;;0.90;;
74233;SDS011;62591;55.764;37.718;2023-10-09T04:29:05;1.90;;;0.70;;
74233;SDS011;62591;55.764;37.718;2023-10-09T04:31:37;1.60;;;0.80;;
74233;SDS011;62591;55.764;37.718;2023-10-09T04:34:06;2.95;;;1.10;;
74233;SDS011;62591;55.764;37.718;2023-10-09T04:36:50;2.75;;;1.20;;
74233;SDS011;62591;55.764;37.718;2023-10-09T04:39:23;2.67;;;0.77;;
74233;SDS011;62591;55.764;37.718;2023-10-09T04:42:13;1.50;;;0.73;;
74233;SDS011;62591;55.764;37.718;2023-10-09T04:45:05;3.08;;;0.95;;
74233;SDS011;62591;55.764;37.718;2023-10-09T04:48:08;2.80;;;1.00;;
74233;SDS011;62591;55.764;37.718;2023-10-09T04:50:38;2.35;;;1.10;;
74233;SDS011;62591;55.764;37.718;2023-10-09T04:53:29;1.98;;;1.10;;
74233;SDS011;62591;55.764;37.718;2023-10-09T04:56:06;1.80;;;1.00;;
74233;SDS011;62591;55.764;37.718;2023-10-09T04:58:42;4.22;;;0.90;;
74233;SDS011;62591;55.764;37.718;2023-10-09T05:01:14;1.98;;;1.00;;
74233;SDS011;62591;55.764;37.718;2023-10-09T05:04:03;1.85;;;0.80;;
74233;SDS011;62591;55.764;37.718;2023-10-09T05:06:46;3.17;;;1.00;;
74233;SDS011;62591;55.764;37.718;2023-10-09T05:09:23;2.40;;;1.00;;
74233;SDS011;62591;55.764;37.718;2023-10-09T05:11:51;2.00;;;1.00;;
74233;SDS011;62591;55.764;37.718;2023-10-09T05:14:43;1.95;;;1.00;;
74233;SDS011;62591;55.764;37.718;2023-10-09T05:17:34;2.55;;;0.95;;
74233;SDS011;62591;55.764;37.718;2023-10-09T05:20:03;2.30;;;1.02;;
74233;SDS011;62591;55.764;37.718;2023-10-09T05:22:49;2.40;;;1.10;;
74233;SDS011;62591;55.764;37.718;2023-10-09T05:25:35;1.80;;;0.90;;
74233;SDS011;62591;55.764;37.718;2023-10-09T05:28:25;2.22;;;0.80;;
74233;SDS011;62591;55.764;37.718;2023-10-09T05:30:58;2.88;;;1.10;;
74233;SDS011;62591;55.764;37.718;2023-10-09T05:33:37;3.10;;;1.13;;
74233;SDS011;62591;55.764;37.718;2023-10-09T05:36:06;2.05;;;0.95;;
74233;SDS011;62591;55.764;37.718;2023-10-09T05:41:26;2.85;;;0.90;;
74233;SDS011;62591;55.764;37.718;2023-10-09T05:44:12;1.90;;;0.90;;
74233;SDS011;62591;55.764;37.718;2023-10-09T05:46:58;1.70;;;0.73;;
74233;SDS011;62591;55.764;37.718;2023-10-09T05:49:46;2.10;;;0.90;;
74233;SDS011;62591;55.764;37.718;2023-10-09T05:52:22;2.20;;;0.98;;
74233;SDS011;62591;55.764;37.718;2023-10-09T05:55:08;3.10;;;1.10;;
74233;SDS011;62591;55.764;37.718;2023-10-09T05:58:03;2.13;;;0.80;;
74233;SDS011;62591;55.764;37.718;2023-10-09T06:00:49;2.03;;;1.00;;
74233;SDS011;62591;55.764;37.718;2023-10-09T06:03:47;2.35;;;1.40;;
74233;SDS011;62591;55.764;37.718;2023-10-09T06:06:24;2.53;;;0.80;;
74233;SDS011;62591;55.764;37.718;2023-10-09T06:09:10;3.50;;;1.20;;
74233;SDS011;62591;55.764;37.718;2023-10-09T06:11:57;3.25;;;1.02;;
74233;SDS011;62591;55.764;37.718;2023-10-09T06:14:43;4.18;;;1.17;;
74233;SDS011;62591;55.764;37.718;2023-10-09T06:17:25;2.17;;;1.00;;
74233;SDS011;62591;55.764;37.718;2023-10-09T06:20:10;1.88;;;0.95;;
74233;SDS011;62591;55.764;37.718;2023-10-09T06:22:54;2.75;;;1.30;;
74233;SDS011;62591;55.764;37.718;2023-10-09T06:25:43;2.63;;;0.93;;
74233;SDS011;62591;55.764;37.718;2023-10-09T06:28:18;1.88;;;0.82;;
74233;SDS011;62591;55.764;37.718;2023-10-09T06:31:00;2.47;;;1.13;;
74233;SDS011;62591;55.764;37.718;2023-10-09T06:33:49;4.70;;;1.00;;
74233;SDS011;62591;55.764;37.718;2023-10-09T06:36:43;2.22;;;0.82;;
74233;SDS011;62591;55.764;37.718;2023-10-09T06:39:21;2.92;;;1.13;;
74233;SDS011;62591;55.764;37.718;2023-10-09T06:42:09;2.17;;;0.90;;
74233;SDS011;62591;55.764;37.718;2023-10-09T06:44:59;1.75;;;0.85;;
74233;SDS011;62591;55.764;37.718;2023-10-09T06:47:31;2.63;;;0.95;;
74233;SDS011;62591;55.764;37.718;2023-10-09T06:50:10;3.03;;;1.23;;
74233;SDS011;62591;55.764;37.718;2023-10-09T06:52:56;3.10;;;1.00;;
74233;SDS011;62591;55.764;37.718;2023-10-09T06:55:54;1.63;;;0.85;;
74233;SDS011;62591;55.764;37.718;2023-10-09T06:58:33;3.85;;;1.40;;
74233;SDS011;62591;55.764;37.718;2023-10-09T07:01:09;5.95;;;1.10;;
74233;SDS011;62591;55.764;37.718;2023-10-09T07:04:07;2.78;;;0.82;;
74233;SDS011;62591;55.764;37.718;2023-10-09T07:06:46;1.67;;;0.77;;
74233;SDS011;62591;55.764;37.718;2023-10-09T07:09:18;4.68;;;0.70;;
74233;SDS011;62591;55.764;37.718;2023-10-09T07:11:49;2.88;;;1.20;;
74233;SDS011;62591;55.764;37.718;2023-10-09T07:14:26;3.00;;;0.90;;
74233;SDS011;62591;55.764;37.718;2023-10-09T07:17:15;2.75;;;0.90;;
74233;SDS011;62591;55.764;37.718;2023-10-09T07:20:10;2.33;;;1.00;;
74233;SDS011;62591;55.764;37.718;2023-10-09T07:23:01;2.53;;;1.10;;
74233;SDS011;62591;55.764;37.718;2023-10-09T07:25:41;2.40;;;0.70;;
74233;SDS011;62591;55.764;37.718;2023-10-09T07:28:23;1.98;;;0.70;;
74233;SDS011;62591;55.764;37.718;2023-10-09T07:31:04;2.85;;;0.98;;
74233;SDS011;62591;55.764;37.718;2023-10-09T07:33:37;2.47;;;1.00;;
74233;SDS011;62591;55.764;37.718;2023-10-09T07:36:25;3.38;;;1.20;;
74233;SDS011;62591;55.764;37.718;2023-10-09T07:39:02;2.97;;;1.10;;
74233;SDS011;62591;55.764;37.718;2023-10-09T07:41:41;3.78;;;1.02;;
74233;SDS011;62591;55.764;37.718;2023-10-09T07:44:25;1.80;;;0.90;;
74233;SDS011;62591;55.764;37.718;2023-10-09T07:47:04;5.07;;;1.10;;
74233;SDS011;62591;55.764;37.718;2023-10-09T07:49:45;2.25;;;1.02;;
74233;SDS011;62591;55.764;37.718;2023-10-09T07:52:21;4.35;;;1.00;;
74233;SDS011;62591;55.764;37.718;2023-10-09T07:54:49;2.05;;;0.90;;
74233;SDS011;62591;55.764;37.718;2023-10-09T07:57:21;1.80;;;0.90;;
74233;SDS011;62591;55.764;37.718;2023-10-09T08:00:01;2.03;;;0.90;;
74233;SDS011;62591;55.764;37.718;2023-10-09T08:02:39;2.95;;;1.10;;
74233;SDS011;62591;55.764;37.718;2023-10-09T08:05:08;2.45;;;1.10;;
74233;SDS011;62591;55.764;37.718;2023-10-09T08:07:46;2.97;;;1.10;;
74233;SDS011;62591;55.764;37.718;2023-10-09T08:11:01;6.25;;;1.35;;
74233;SDS011;62591;55.764;37.718;2023-10-09T08:13:47;2.95;;;1.00;;
74233;SDS011;62591;55.764;37.718;2023-10-09T08:19:08;4.57;;;1.33;;
74233;SDS011;62591;55.764;37.718;2023-10-09T08:21:59;2.55;;;0.90;;
74233;SDS011;62591;55.764;37.718;2023-10-09T08:25:05;1.50;;;0.70;;
74233;SDS011;62591;55.764;37.718;2023-10-09T08:27:34;2.70;;;1.00;;
74233;SDS011;62591;55.764;37.718;2023-10-09T08:30:21;2.55;;;0.93;;
74233;SDS011;62591;55.764;37.718;2023-10-09T08:32:57;4.75;;;1.40;;
74233;SDS011;62591;55.764;37.718;2023-10-09T08:35:33;2.70;;;0.80;;
74233;SDS011;62591;55.764;37.718;2023-10-09T08:38:03;5.32;;;1.10;;
74233;SDS011;62591;55.764;37.718;2023-10-09T08:40:37;1.88;;;0.88;;
74233;SDS011;62591;55.764;37.718;2023-10-09T08:43:08;2.90;;;1.20;;
74233;SDS011;62591;55.764;37.718;2023-10-09T08:45:38;2.95;;;1.00;;
74233;SDS011;62591;55.764;37.718;2023-10-09T08:48:09;2.05;;;1.00;;
74233;SDS011;62591;55.764;37.718;2023-10-09T08:50:43;2.85;;;1.15;;
74233;SDS011;62591;55.764;37.718;2023-10-09T08:53:13;3.50;;;1.17;;
74233;SDS011;62591;55.764;37.718;2023-10-09T08:55:43;2.78;;;0.90;;
74233;SDS011;62591;55.764;37.718;2023-10-09T08:58:14;3.78;;;1.05;;
74233;SDS011;62591;55.764;37.718;2023-10-09T09:00:47;5.15;;;1.45;;
74233;SDS011;62591;55.764;37.718;2023-10-09T09:03:18;4.03;;;2.28;;
74233;SDS011;62591;55.764;37.718;2023-10-09T09:05:48;4.20;;;1.10;;
74233;SDS011;62591;55.764;37.718;2023-10-09T09:08:28;6.00;;;2.20;;
74233;SDS011;62591;55.764;37.718;2023-10-09T09:10:58;4.95;;;1.58;;
74233;SDS011;62591;55.764;37.718;2023-10-09T09:13:39;4.60;;;1.35;;
74233;SDS011;62591;55.764;37.718;2023-10-09T09:16:16;2.17;;;0.73;;
74233;SDS011;62591;55.764;37.718;2023-10-09T09:18:50;2.25;;;0.80;;
74233;SDS011;62591;55.764;37.718;2023-10-09T09:21:27;2.42;;;0.80;;
74233;SDS011;62591;55.764;37.718;2023-10-09T09:23:57;2.45;;;1.00;;
74233;SDS011;62591;55.764;37.718;2023-10-09T09:26:38;4.47;;;1.50;;
74233;SDS011;62591;55.764;37.718;2023-10-09T09:29:12;1.80;;;0.75;;
74233;SDS011;62591;55.764;37.718;2023-10-09T09:31:51;1.88;;;0.90;;
74233;SDS011;62591;55.764;37.718;2023-10-09T09:34:23;2.35;;;0.90;;
74233;SDS011;62591;55.764;37.718;2023-10-09T09:36:56;2.30;;;0.80;;
74233;SDS011;62591;55.764;37.718;2023-10-09T09:39:31;2.55;;;1.08;;
74233;SDS011;62591;55.764;37.718;2023-10-09T09:42:18;3.72;;;0.80;;
74233;SDS011;62591;55.764;37.718;2023-10-09T09:44:52;3.13;;;0.85;;
74233;SDS011;62591;55.764;37.718;2023-10-09T09:47:22;1.73;;;0.80;;
74233;SDS011;62591;55.764;37.718;2023-10-09T09:49:56;4.60;;;1.05;;
74233;SDS011;62591;55.764;37.718;2023-10-09T09:52:32;1.65;;;0.70;;
74233;SDS011;62591;55.764;37.718;2023-10-09T09:55:07;4.20;;;1.00;;
74233;SDS011;62591;55.764;37.718;2023-10-09T09:57:44;2.90;;;0.73;;
74233;SDS011;62591;55.764;37.718;2023-10-09T10:00:19;2.63;;;0.90;;
74233;SDS011;62591;55.764;37.718;2023-10-09T10:03:01;1.73;;;0.70;;
74233;SDS011;62591;55.764;37.718;2023-10-09T10:05:35;6.03;;;1.20;;
74233;SDS011;62591;55.764;37.718;2023-10-09T10:08:07;3.30;;;0.90;;
74233;SDS011;62591;55.764;37.718;2023-10-09T10:10:39;2.47;;;0.90;;
74233;SDS011;62591;55.764;37.718;2023-10-09T10:13:54;3.08;;;1.05;;
74233;SDS011;62591;55.764;37.718;2023-10-09T10:16:28;2.40;;;1.02;;
74233;SDS011;62591;55.764;37.718;2023-10-09T10:19:02;4.50;;;0.77;;
74233;SDS011;62591;55.764;37.718;2023-10-09T10:21:51;1.77;;;0.85;;
74233;SDS011;62591;55.764;37.718;2023-10-09T10:33:01;2.25;;;0.88;;
74233;SDS011;62591;55.764;37.718;2023-10-09T10:35:43;1.85;;;0.70;;
74233;SDS011;62591;55.764;37.718;2023-10-09T10:38:30;3.13;;;1.00;;
74233;SDS011;62591;55.764;37.718;2023-10-09T10:41:14;2.25;;;0.82;;
74233;SDS011;62591;55.764;37.718;2023-10-09T10:43:49;4.70;;;1.23;;
74233;SDS011;62591;55.764;37.718;2023-10-09T10:46:50;4.72;;;1.13;;
74233;SDS011;62591;55.764;37.718;2023-10-09T10:49:20;3.53;;;1.10;;
74233;SDS011;62591;55.764;37.718;2023-10-09T10:51:49;2.55;;;0.93;;
74233;SDS011;62591;55.764;37.718;2023-10-09T10:54:30;1.83;;;0.80;;
74233;SDS011;62591;55.764;37.718;2023-10-09T10:57:17;1.90;;;0.93;;
74233;SDS011;62591;55.764;37.718;2023-10-09T11:00:20;2.50;;;1.10;;
74233;SDS011;62591;55.764;37.718;2023-10-09T11:03:06;2.60;;;0.82;;
74233;SDS011;62591;55.764;37.718;2023-10-09T11:05:45;3.00;;;0.90;;
74233;SDS011;62591;55.764;37.718;2023-10-09T11:08:23;2.42;;;0.90;;
74233;SDS011;62591;55.764;37.718;2023-10-09T11:13:47;2.70;;;0.80;;
74233;SDS011;62591;55.764;37.718;2023-10-09T11:16:22;2.20;;;0.95;;
74233;SDS011;62591;55.764;37.718;2023-10-09T11:19:10;2.92;;;0.88;;
74233;SDS011;62591;55.764;37.718;2023-10-09T11:21:56;2.60;;;0.98;;
74233;SDS011;62591;55.764;37.718;2023-10-09T11:24:47;2.47;;;0.90;;
74233;SDS011;62591;55.764;37.718;2023-10-09T11:27:41;3.70;;;1.10;;
74233;SDS011;62591;55.764;37.718;2023-10-09T11:30:18;2.78;;;0.80;;
74233;SDS011;62591;55.764;37.718;2023-10-09T11:33:06;4.53;;;1.00;;
74233;SDS011;62591;55.764;37.718;2023-10-09T11:35:41;2.60;;;1.17;;
74233;SDS011;62591;55.764;37.718;2023-10-09T11:38:23;1.90;;;0.70;;
74233;SDS011;62591;55.764;37.718;2023-10-09T11:40:52;1.30;;;0.50;;
74233;SDS011;62591;55.764;37.718;2023-10-09T11:43:47;4.20;;;0.80;;
74233;SDS011;62591;55.764;37.718;2023-10-09T11:46:19;2.10;;;0.73;;
74233;SDS011;62591;55.764;37.718;2023-10-09T11:49:16;1.40;;;0.52;;
74233;SDS011;62591;55.764;37.718;2023-10-09T11:52:12;2.03;;;0.73;;
74233;SDS011;62591;55.764;37.718;2023-10-09T11:54:58;1.27;;;0.60;;
74233;SDS011;62591;55.764;37.718;2023-10-09T11:57:30;3.45;;;1.08;;
74233;SDS011;62591;55.764;37.718;2023-10-09T12:00:02;2.92;;;1.00;;
74233;SDS011;62591;55.764;37.718;2023-10-09T12:02:54;2.30;;;0.80;;
74233;SDS011;62591;55.764;37.718;2023-10-09T12:05:32;2.95;;;1.23;;
74233;SDS011;62591;55.764;37.718;2023-10-09T12:08:01;3.17;;;1.10;;
74233;SDS011;62591;55.764;37.718;2023-10-09T12:10:35;3.45;;;1.45;;
74233;SDS011;62591;55.764;37.718;2023-10-09T12:13:06;2.35;;;0.77;;
74233;SDS011;62591;55.764;37.718;2023-10-09T12:15:36;2.95;;;1.08;;
74233;SDS011;62591;55.764;37.718;2023-10-09T12:18:06;2.08;;;0.85;;
74233;SDS011;62591;55.764;37.718;2023-10-09T12:20:42;2.55;;;0.90;;
74233;SDS011;62591;55.764;37.718;2023-10-09T12:23:18;3.13;;;0.85;;
74233;SDS011;62591;55.764;37.718;2023-10-09T12:25:48;2.33;;;0.80;;
74233;SDS011;62591;55.764;37.718;2023-10-09T12:28:17;1.85;;;0.80;;
74233;SDS011;62591;55.764;37.718;2023-10-09T12:30:49;4.97;;;1.30;;
74233;SDS011;62591;55.764;37.718;2023-10-09T12:33:19;3.05;;;0.95;;
74233;SDS011;62591;55.764;37.718;2023-10-09T12:35:55;2.25;;;0.90;;
74233;SDS011;62591;55.764;37.718;2023-10-09T12:38:28;4.07;;;1.05;;
74233;SDS011;62591;55.764;37.718;2023-10-09T12:41:01;2.17;;;0.80;;
74233;SDS011;62591;55.764;37.718;2023-10-09T12:43:35;2.65;;;1.00;;
74233;SDS011;62591;55.764;37.718;2023-10-09T12:46:07;3.63;;;0.80;;
74233;SDS011;62591;55.764;37.718;2023-10-09T12:48:36;3.42;;;0.98;;
74233;SDS011;62591;55.764;37.718;2023-10-09T12:51:04;2.15;;;0.75;;
74233;SDS011;62591;55.764;37.718;2023-10-09T12:53:34;3.42;;;0.98;;
74233;SDS011;62591;55.764;37.718;2023-10-09T12:56:08;3.40;;;1.30;;
74233;SDS011;62591;55.764;37.718;2023-10-09T12:58:39;2.80;;;1.20;;
74233;SDS011;62591;55.764;37.718;2023-10-09T13:01:21;4.70;;;1.33;;
74233;SDS011;62591;55.764;37.718;2023-10-09T13:03:49;4.30;;;1.10;;
74233;SDS011;62591;55.764;37.718;2023-10-09T13:06:18;8.48;;;0.88;;
74233;SDS011;62591;55.764;37.718;2023-10-09T13:08:51;3.30;;;0.88;;
74233;SDS011;62591;55.764;37.718;2023-10-09T13:11:21;3.95;;;0.80;;
74233;SDS011;62591;55.764;37.718;2023-10-09T13:13:52;2.80;;;1.13;;
74233;SDS011;62591;55.764;37.718;2023-10-09T13:16:23;2.75;;;0.70;;
74233;SDS011;62591;55.764;37.718;2023-10-09T13:18:53;1.52;;;0.57;;
74233;SDS011;62591;55.764;37.718;2023-10-09T13:21:24;2.28;;;0.90;;
74233;SDS011;62591;55.764;37.718;2023-10-09T13:23:53;2.03;;;0.80;;
74233;SDS011;62591;55.764;37.718;2023-10-09T13:26:24;2.85;;;0.85;;
74233;SDS011;62591;55.764;37.718;2023-10-09T13:29:01;2.00;;;0.82;;
74233;SDS011;62591;55.764;37.718;2023-10-09T13:31:32;2.55;;;0.82;;
74233;SDS011;62591;55.764;37.718;2023-10-09T13:34:02;2.53;;;1.00;;
74233;SDS011;62591;55.764;37.718;2023-10-09T13:36:38;2.35;;;0.70;;
74233;SDS011;62591;55.764;37.718;2023-10-09T13:39:12;1.98;;;0.63;;
74233;SDS011;62591;55.764;37.718;2023-10-09T13:41:55;1.70;;;0.60;;
74233;SDS011;62591;55.764;37.718;2023-10-09T13:44:27;1.88;;;0.77;;
74233;SDS011;62591;55.764;37.718;2023-10-09T13:46:58;1.45;;;0.70;;
74233;SDS011;62591;55.764;37.718;2023-10-09T13:49:28;2.05;;;0.63;;
74233;SDS011;62591;55.764;37.718;2023-10-09T13:51:59;2.05;;;0.70;;
74233;SDS011;62591;55.764;37.718;2023-10-09T13:54:29;1.55;;;0.57;;
74233;SDS011;62591;55.764;37.718;2023-10-09T13:57:07;1.75;;;0.63;;
74233;SDS011;62591;55.764;37.718;2023-10-09T13:59:37;2.40;;;0.60;;
74233;SDS011;62591;55.764;37.718;2023-10-09T14:02:12;1.75;;;0.80;;
74233;SDS011;62591;55.764;37.718;2023-10-09T14:04:46;2.55;;;1.10;;
74233;SDS011;62591;55.764;37.718;2023-10-09T14:07:15;6.03;;;1.60;;
74233;SDS011;62591;55.764;37.718;2023-10-09T14:09:45;3.42;;;1.45;;
74233;SDS011;62591;55.764;37.718;2023-10-09T14:12:23;4.20;;;1.83;;
74233;SDS011;62591;55.764;37.718;2023-10-09T14:17:26;3.05;;;1.00;;
74233;SDS011;62591;55.764;37.718;2023-10-09T14:19:57;3.30;;;1.20;;
74233;SDS011;62591;55.764;37.718;2023-10-09T14:22:47;5.38;;;1.70;;
74233;SDS011;62591;55.764;37.718;2023-10-09T14:25:20;7.22;;;1.75;;
74233;SDS011;62591;55.764;37.718;2023-10-09T14:27:48;5.05;;;1.90;;
74233;SDS011;62591;55.764;37.718;2023-10-09T14:30:20;4.20;;;1.30;;
74233;SDS011;62591;55.764;37.718;2023-10-09T14:32:59;3.55;;;1.20;;
74233;SDS011;62591;55.764;37.718;2023-10-09T14:35:32;2.90;;;1.17;;
74233;SDS011;62591;55.764;37.718;2023-10-09T14:38:01;5.00;;;1.40;;
74233;SDS011;62591;55.764;37.718;2023-10-09T14:40:40;3.95;;;1.20;;
74233;SDS011;62591;55.764;37.718;2023-10-09T14:43:11;3.47;;;1.23;;
74233;SDS011;62591;55.764;37.718;2023-10-09T14:45:46;2.08;;;1.05;;
74233;SDS011;62591;55.764;37.718;2023-10-09T14:48:18;3.22;;;1.30;;
74233;SDS011;62591;55.764;37.718;2023-10-09T14:50:53;5.03;;;1.35;;
74233;SDS011;62591;55.764;37.718;2023-10-09T14:53:21;3.22;;;1.00;;
74233;SDS011;62591;55.764;37.718;2023-10-09T14:55:54;3.47;;;1.02;;
74233;SDS011;62591;55.764;37.718;2023-10-09T14:58:23;3.95;;;1.60;;
74233;SDS011;62591;55.764;37.718;2023-10-09T15:00:52;4.40;;;0.80;;
74233;SDS011;62591;55.764;37.718;2023-10-09T15:03:22;4.40;;;0.90;;
74233;SDS011;62591;55.764;37.718;2023-10-09T15:05:51;3.72;;;0.90;;
74233;SDS011;62591;55.764;37.718;2023-10-09T15:08:21;4.20;;;1.58;;
74233;SDS011;62591;55.764;37.718;2023-10-09T15:10:50;2.83;;;1.13;;
74233;SDS011;62591;55.764;37.718;2023-10-09T15:13:23;3.08;;;1.25;;
74233;SDS011;62591;55.764;37.718;2023-10-09T15:15:54;1.77;;;0.82;;
74233;SDS011;62591;55.764;37.718;2023-10-09T15:18:25;3.47;;;1.40;;
74233;SDS011;62591;55.764;37.718;2023-10-09T15:20:53;2.60;;;1.23;;
74233;SDS011;62591;55.764;37.718;2023-10-09T15:23:22;1.80;;;0.68;;
74233;SDS011;62591;55.764;37.718;2023-10-09T15:25:50;2.17;;;0.82;;
74233;SDS011;62591;55.764;37.718;2023-10-09T15:28:19;1.80;;;0.90;;
74233;SDS011;62591;55.764;37.718;2023-10-09T15:30:49;2.83;;;0.93;;
74233;SDS011;62591;55.764;37.718;2023-10-09T15:33:18;2.33;;;0.65;;
74233;SDS011;62591;55.764;37.718;2023-10-09T15:35:49;2.50;;;1.13;;
74233;SDS011;62591;55.764;37.718;2023-10-09T15:38:18;2.25;;;0.90;;
74233;SDS011;62591;55.764;37.718;2023-10-09T15:40:47;2.20;;;1.20;;
74233;SDS011;62591;55.764;37.718;2023-10-09T15:43:15;3.13;;;1.33;;
74233;SDS011;62591;55.764;37.718;2023-10-09T15:45:44;3.63;;;1.50;;
74233;SDS011;62591;55.764;37.718;2023-10-09T15:48:15;3.08;;;1.70;;
74233;SDS011;62591;55.764;37.718;2023-10-09T15:53:18;3.10;;;1.35;;